Time;durP1;ratioP1;P1;durP2;ratioP2;P2;SDS_P1;SDS_P2;PMS_P1;PMS_P2;Temp;Humidity;BMP_temperature;BMP_pressure;BME280_temperature;BME280_humidity;BME280_pressure;Samples;Min_cycle;Max_cycle;Signal;HPM_P1;HPM_P2
2021/01/09 00:01:16;;;;;;;15.70;11.43;;;;;;;;;;4789944;29;20662;-73
2021/01/09 00:04:20;;;;;;;16.90;11.13;;;;;;;;;;4790106;30;20877;-73
2021/01/09 00:07:24;;;;;;;18.80;12.20;;;;;;;;;;4790066;30;20568;-74
2021/01/09 00:10:29;;;;;;;16.60;11.30;;;;;;;;;;4789317;29;21145;-73
2021/01/09 00:13:33;;;;;;;18.10;11.30;;;;;;;;;;4789742;30;20654;-73
2021/01/09 00:16:37;;;;;;;17.50;11.93;;;;;;;;;;4789193;30;20575;-74
2021/01/09 00:19:41;;;;;;;15.80;11.23;;;;;;;;;;4781389;30;20600;-74
2021/01/09 00:22:45;;;;;;;16.80;11.17;;;;;;;;;;4772184;30;20556;-74
2021/01/09 00:25:50;;;;;;;17.77;10.93;;;;;;;;;;4783072;29;20622;-72
2021/01/09 00:28:55;;;;;;;17.63;11.27;;;;;;;;;;4790026;30;20913;-73
2021/01/09 00:31:59;;;;;;;14.93;10.73;;;;;;;;;;4789618;29;20631;-73
2021/01/09 00:35:05;;;;;;;16.63;10.37;;;;;;;;;;4788587;30;20639;-72
2021/01/09 00:38:09;;;;;;;18.30;11.80;;;;;;;;;;4788958;30;20956;-73
2021/01/09 00:41:14;;;;;;;16.50;11.07;;;;;;;;;;4789283;29;20658;-73
2021/01/09 00:44:18;;;;;;;17.67;11.43;;;;;;;;;;4789701;30;20552;-73
2021/01/09 00:47:22;;;;;;;18.97;10.93;;;;;;;;;;4788887;30;20555;-73
2021/01/09 00:50:26;;;;;;;17.77;11.03;;;;;;;;;;4789346;29;20607;-73
2021/01/09 00:53:31;;;;;;;16.63;11.13;;;;;;;;;;4789252;30;20614;-73
2021/01/09 00:56:35;;;;;;;17.97;11.30;;;;;;;;;;4788156;30;21018;-73
2021/01/09 00:59:40;;;;;;;17.97;11.50;;;;;;;;;;4798307;29;20595;-72
2021/01/09 01:02:45;;;;;;;16.53;11.33;;;;;;;;;;4788668;30;20552;-73
2021/01/09 01:05:49;;;;;;;16.20;11.10;;;;;;;;;;4789131;30;20603;-72
2021/01/09 01:08:54;;;;;;;17.47;12.13;;;;;;;;;;4788939;30;20606;-72
2021/01/09 01:11:58;;;;;;;18.90;11.73;;;;;;;;;;4789149;29;20634;-73
2021/01/09 01:15:04;;;;;;;17.57;11.57;;;;;;;;;;4771040;30;20544;-73
2021/01/09 01:18:08;;;;;;;16.93;11.83;;;;;;;;;;4774394;30;20663;-72
2021/01/09 01:21:13;;;;;;;16.10;10.77;;;;;;;;;;4788034;29;20635;-73
2021/01/09 01:24:16;;;;;;;16.43;11.50;;;;;;;;;;4788192;30;20563;-72
2021/01/09 01:27:21;;;;;;;17.13;11.70;;;;;;;;;;4787965;30;20568;-72
2021/01/09 01:30:25;;;;;;;18.50;12.07;;;;;;;;;;4771129;30;20565;-72
2021/01/09 01:33:29;;;;;;;16.83;12.17;;;;;;;;;;4775723;30;20631;-72
2021/01/09 01:36:34;;;;;;;19.30;12.47;;;;;;;;;;4788061;30;20564;-72
2021/01/09 01:39:38;;;;;;;17.23;12.37;;;;;;;;;;4787607;30;20655;-72
2021/01/09 01:42:42;;;;;;;19.33;12.93;;;;;;;;;;4787613;30;20953;-72
2021/01/09 01:45:47;;;;;;;17.10;12.10;;;;;;;;;;4787833;30;20560;-73
2021/01/09 01:48:51;;;;;;;17.50;11.80;;;;;;;;;;4787348;30;20599;-72
2021/01/09 01:51:56;;;;;;;18.47;11.90;;;;;;;;;;4788379;29;20634;-73
2021/01/09 01:55:00;;;;;;;16.67;11.47;;;;;;;;;;4787423;30;20977;-72
2021/01/09 01:58:04;;;;;;;19.70;12.50;;;;;;;;;;4788191;30;20595;-72
2021/01/09 02:01:09;;;;;;;20.90;12.83;;;;;;;;;;4788451;29;20638;-73
2021/01/09 02:04:13;;;;;;;20.43;13.10;;;;;;;;;;4777141;30;20611;-73
2021/01/09 02:07:21;;;;;;;18.93;12.80;;;;;;;;;;4788445;30;20556;-73
2021/01/09 02:10:26;;;;;;;22.23;13.40;;;;;;;;;;4769581;30;20557;-73
2021/01/09 02:13:38;;;;;;;19.53;12.57;;;;;;;;;;4775138;30;20604;-73
2021/01/09 02:16:43;;;;;;;20.80;13.23;;;;;;;;;;4787364;30;20571;-73
2021/01/09 02:19:48;;;;;;;19.67;13.03;;;;;;;;;;4787293;30;20635;-72
2021/01/09 02:22:54;;;;;;;19.37;12.67;;;;;;;;;;4787531;30;20551;-73
2021/01/09 02:25:59;;;;;;;18.57;12.70;;;;;;;;;;4787230;30;20572;-72
2021/01/09 02:29:03;;;;;;;19.43;13.33;;;;;;;;;;4787042;30;20595;-72
2021/01/09 02:32:10;;;;;;;17.63;12.50;;;;;;;;;;4787102;29;20626;-72
2021/01/09 02:35:16;;;;;;;18.93;13.03;;;;;;;;;;4787040;29;21015;-72
2021/01/09 02:38:20;;;;;;;19.77;12.83;;;;;;;;;;4786897;30;20655;-71
2021/01/09 02:41:26;;;;;;;20.17;12.50;;;;;;;;;;4787004;29;20634;-73
2021/01/09 02:44:31;;;;;;;18.37;12.67;;;;;;;;;;4787329;30;20556;-73
2021/01/09 02:47:36;;;;;;;20.30;13.23;;;;;;;;;;4788086;30;20555;-73
2021/01/09 02:50:40;;;;;;;21.17;12.63;;;;;;;;;;4772685;30;20624;-73
2021/01/09 02:53:44;;;;;;;21.07;13.67;;;;;;;;;;4762673;30;20564;-73
2021/01/09 02:56:48;;;;;;;19.70;13.10;;;;;;;;;;4776679;30;20599;-72
2021/01/09 02:59:52;;;;;;;21.03;13.60;;;;;;;;;;4790166;30;20639;-72
2021/01/09 03:02:56;;;;;;;20.40;13.77;;;;;;;;;;4800566;29;20626;-73
2021/01/09 03:06:01;;;;;;;21.33;13.30;;;;;;;;;;4790304;30;20633;-73
2021/01/09 03:09:04;;;;;;;22.37;13.30;;;;;;;;;;4800383;29;20631;-73
2021/01/09 03:12:09;;;;;;;22.80;13.53;;;;;;;;;;4790434;29;20967;-73
2021/01/09 03:15:13;;;;;;;18.70;13.07;;;;;;;;;;4791215;30;20559;-73
2021/01/09 03:18:18;;;;;;;20.30;14.27;;;;;;;;;;4790475;30;20607;-72
2021/01/09 03:21:22;;;;;;;22.77;14.37;;;;;;;;;;4790099;29;20645;-73
2021/01/09 03:24:26;;;;;;;21.87;14.37;;;;;;;;;;4790698;30;20639;-72
2021/01/09 03:27:30;;;;;;;21.93;13.67;;;;;;;;;;4790229;30;20607;-73
2021/01/09 03:30:34;;;;;;;22.37;14.37;;;;;;;;;;4772107;30;20604;-73
2021/01/09 03:33:38;;;;;;;20.33;13.17;;;;;;;;;;4776696;30;20595;-73
2021/01/09 03:36:42;;;;;;;20.37;14.30;;;;;;;;;;4790897;30;20552;-73
2021/01/09 03:39:46;;;;;;;20.43;13.43;;;;;;;;;;4789574;30;20638;-72
2021/01/09 03:42:51;;;;;;;22.47;14.00;;;;;;;;;;4790508;30;20621;-72
2021/01/09 03:45:55;;;;;;;22.33;13.90;;;;;;;;;;4790391;30;20617;-71
2021/01/09 03:48:59;;;;;;;22.70;14.03;;;;;;;;;;4790097;30;20622;-72
2021/01/09 03:52:04;;;;;;;23.20;14.33;;;;;;;;;;4789975;29;20658;-71
2021/01/09 03:55:08;;;;;;;21.03;13.40;;;;;;;;;;4790288;30;20617;-72
2021/01/09 03:58:12;;;;;;;19.93;13.57;;;;;;;;;;4789645;30;20602;-71
2021/01/09 04:01:17;;;;;;;20.10;14.30;;;;;;;;;;4789456;29;20642;-72
2021/01/09 04:04:22;;;;;;;20.27;14.07;;;;;;;;;;4790106;30;20617;-72
2021/01/09 04:07:26;;;;;;;24.10;14.67;;;;;;;;;;4778906;30;21007;-71
2021/01/09 04:10:31;;;;;;;21.47;14.37;;;;;;;;;;4788826;29;21180;-71
2021/01/09 04:13:35;;;;;;;21.70;14.00;;;;;;;;;;4789271;30;20563;-72
2021/01/09 04:16:39;;;;;;;21.90;13.37;;;;;;;;;;4790016;30;20648;-72
2021/01/09 04:19:44;;;;;;;22.33;14.13;;;;;;;;;;4789698;30;20650;-71
2021/01/09 04:22:48;;;;;;;19.40;13.00;;;;;;;;;;4799694;29;20907;-72
2021/01/09 04:25:53;;;;;;;23.63;13.60;;;;;;;;;;4789827;30;21193;-72
2021/01/09 04:28:57;;;;;;;19.77;13.20;;;;;;;;;;4789751;30;20610;-72
2021/01/09 04:32:01;;;;;;;22.33;14.53;;;;;;;;;;4789440;29;21015;-72
2021/01/09 04:35:06;;;;;;;23.17;14.83;;;;;;;;;;4819159;24;20707;-71
2021/01/09 04:38:10;;;;;;;20.20;14.03;;;;;;;;;;4810172;29;20608;-71
2021/01/09 04:41:19;;;;;;;20.37;13.37;;;;;;;;;;4825849;29;20624;-72
2021/01/09 04:44:24;;;;;;;19.13;13.23;;;;;;;;;;4825991;29;20565;-71
2021/01/09 04:47:32;;;;;;;21.60;13.50;;;;;;;;;;4825538;29;20973;-71
2021/01/09 04:50:39;;;;;;;22.53;14.87;;;;;;;;;;4821598;29;20648;-71
2021/01/09 04:53:43;;;;;;;19.43;12.93;;;;;;;;;;4825253;29;20582;-71
2021/01/09 04:56:49;;;;;;;20.67;13.53;;;;;;;;;;4825837;29;20550;-71
2021/01/09 04:59:54;;;;;;;22.47;14.63;;;;;;;;;;4824498;29;21224;-71
2021/01/09 05:02:58;;;;;;;21.43;13.23;;;;;;;;;;4824377;29;20598;-71
2021/01/09 05:06:03;;;;;;;22.43;13.73;;;;;;;;;;4825402;29;20561;-71
2021/01/09 05:09:09;;;;;;;21.30;14.40;;;;;;;;;;4824869;29;20554;-71
2021/01/09 05:12:16;;;;;;;22.97;14.10;;;;;;;;;;4824437;29;20637;-71
2021/01/09 05:15:20;;;;;;;21.47;14.07;;;;;;;;;;4825468;29;21123;-71
2021/01/09 05:18:24;;;;;;;19.83;13.13;;;;;;;;;;4825158;29;20601;-71
2021/01/09 05:21:30;;;;;;;22.07;13.87;;;;;;;;;;4825293;29;20629;-71
2021/01/09 05:24:35;;;;;;;23.57;14.73;;;;;;;;;;4807469;29;20550;-71
2021/01/09 05:27:40;;;;;;;20.80;13.37;;;;;;;;;;4806967;29;20915;-71
2021/01/09 05:30:45;;;;;;;21.80;13.97;;;;;;;;;;4806875;29;21219;-71
2021/01/09 05:33:50;;;;;;;20.43;13.30;;;;;;;;;;4808177;29;20609;-71
2021/01/09 05:36:56;;;;;;;20.73;13.57;;;;;;;;;;4825432;29;20561;-71
2021/01/09 05:40:00;;;;;;;20.20;13.97;;;;;;;;;;4806493;29;20609;-71
2021/01/09 05:43:09;;;;;;;21.90;13.43;;;;;;;;;;4813338;29;20605;-71
2021/01/09 05:46:15;;;;;;;20.23;14.13;;;;;;;;;;4824708;29;20621;-71
2021/01/09 05:49:28;;;;;;;22.53;13.63;;;;;;;;;;4824472;29;20875;-71
2021/01/09 05:52:37;;;;;;;21.47;13.57;;;;;;;;;;4824616;29;21010;-71
2021/01/09 05:55:41;;;;;;;23.63;14.37;;;;;;;;;;4823974;29;20566;-71
2021/01/09 05:58:45;;;;;;;20.37;12.80;;;;;;;;;;4813287;29;20605;-71
2021/01/09 06:01:54;;;;;;;21.40;14.70;;;;;;;;;;4824640;29;20614;-71
2021/01/09 06:04:59;;;;;;;23.57;14.10;;;;;;;;;;4806508;29;20555;-71
2021/01/09 06:08:05;;;;;;;21.47;13.60;;;;;;;;;;4806461;29;20554;-71
2021/01/09 06:11:16;;;;;;;22.90;14.93;;;;;;;;;;4806044;29;20633;-71
2021/01/09 06:14:26;;;;;;;20.30;13.47;;;;;;;;;;4823825;29;20601;-71
2021/01/09 06:17:33;;;;;;;21.27;13.53;;;;;;;;;;4823612;29;20608;-71
2021/01/09 06:20:37;;;;;;;19.50;13.80;;;;;;;;;;4823691;29;20657;-71
2021/01/09 06:23:41;;;;;;;21.40;13.80;;;;;;;;;;4823903;29;21196;-71
2021/01/09 06:26:45;;;;;;;20.47;13.10;;;;;;;;;;4819184;29;20597;-71
2021/01/09 06:29:49;;;;;;;24.53;14.60;;;;;;;;;;4824527;29;20553;-72
2021/01/09 06:32:56;;;;;;;23.97;15.07;;;;;;;;;;4823407;29;20597;-71
2021/01/09 06:36:00;;;;;;;26.00;15.10;;;;;;;;;;4824122;29;20620;-71
2021/01/09 06:39:05;;;;;;;23.70;15.23;;;;;;;;;;4823193;29;20608;-71
2021/01/09 06:42:10;;;;;;;22.43;14.57;;;;;;;;;;4823729;29;20660;-70
2021/01/09 06:45:15;;;;;;;22.97;15.03;;;;;;;;;;4824095;29;20974;-70
2021/01/09 06:48:21;;;;;;;23.57;15.70;;;;;;;;;;4824398;29;20553;-71
2021/01/09 06:51:34;;;;;;;21.77;13.77;;;;;;;;;;4824203;29;21220;-71
2021/01/09 06:54:38;;;;;;;20.30;14.20;;;;;;;;;;4823546;29;20567;-71
2021/01/09 06:57:44;;;;;;;23.63;14.83;;;;;;;;;;4806231;29;20550;-71
2021/01/09 07:00:48;;;;;;;22.33;15.97;;;;;;;;;;4813299;29;20800;-71
2021/01/09 07:03:53;;;;;;;22.53;14.43;;;;;;;;;;4823619;29;20918;-71
2021/01/09 07:07:00;;;;;;;22.33;14.37;;;;;;;;;;4823346;29;20575;-71
2021/01/09 07:10:26;;;;;;;34.40;21.77;;;;;;;;;;4823574;29;20605;-71
2021/01/09 07:13:31;;;;;;;28.33;17.83;;;;;;;;;;4823578;29;20618;-71
2021/01/09 07:16:38;;;;;;;24.90;16.43;;;;;;;;;;4812583;29;20576;-71
2021/01/09 07:19:43;;;;;;;25.97;18.57;;;;;;;;;;4823520;29;20633;-70
2021/01/09 07:22:50;;;;;;;30.87;18.50;;;;;;;;;;4822918;29;20574;-71
2021/01/09 07:25:55;;;;;;;24.43;17.17;;;;;;;;;;4812651;29;20563;-71
2021/01/09 07:29:03;;;;;;;27.20;17.30;;;;;;;;;;4815085;29;20970;-70
2021/01/09 07:32:07;;;;;;;22.13;16.20;;;;;;;;;;4805411;29;20622;-71
2021/01/09 07:35:16;;;;;;;23.87;13.53;;;;;;;;;;4805283;29;20641;-71
2021/01/09 07:38:21;;;;;;;22.97;14.57;;;;;;;;;;4824918;29;21192;-71
2021/01/09 07:41:34;;;;;;;92.83;57.27;;;;;;;;;;4826467;29;21247;-70
2021/01/09 07:44:38;;;;;;;44.40;27.60;;;;;;;;;;4826826;29;20567;-71
2021/01/09 07:47:44;;;;;;;34.10;21.83;;;;;;;;;;4825553;29;20605;-71
2021/01/09 07:50:48;;;;;;;32.97;21.03;;;;;;;;;;4825853;29;21214;-71
2021/01/09 07:53:52;;;;;;;44.63;26.93;;;;;;;;;;4826978;29;20578;-71
2021/01/09 07:56:57;;;;;;;31.47;22.13;;;;;;;;;;4826919;29;20883;-71
2021/01/09 08:00:07;;;;;;;35.83;21.90;;;;;;;;;;4825222;29;20649;-71
2021/01/09 08:03:13;;;;;;;72.93;40.30;;;;;;;;;;4825559;29;20569;-71
2021/01/09 08:06:17;;;;;;;92.60;46.90;;;;;;;;;;4826054;29;20601;-72
2021/01/09 08:09:26;;;;;;;228.97;89.73;;;;;;;;;;4825567;29;20605;-71
2021/01/09 08:12:31;;;;;;;208.23;90.33;;;;;;;;;;4825924;29;20660;-71
2021/01/09 08:15:36;;;;;;;138.90;64.00;;;;;;;;;;4825763;29;20613;-70
2021/01/09 08:18:41;;;;;;;85.07;42.83;;;;;;;;;;4826326;29;21107;-70
2021/01/09 08:21:52;;;;;;;58.60;33.90;;;;;;;;;;4825902;29;20664;-70
2021/01/09 08:25:12;;;;;;;25.97;17.37;;;;;;;;;;4825478;29;20606;-70
2021/01/09 08:28:17;;;;;;;24.57;15.53;;;;;;;;;;4824646;29;21187;-71
2021/01/09 08:31:21;;;;;;;24.50;15.17;;;;;;;;;;4825583;29;20656;-71
2021/01/09 08:34:28;;;;;;;21.40;14.83;;;;;;;;;;4825730;29;20617;-71
2021/01/09 08:37:32;;;;;;;25.87;15.37;;;;;;;;;;4825768;29;20605;-71
2021/01/09 08:40:36;;;;;;;25.83;16.97;;;;;;;;;;4825217;29;20676;-71
2021/01/09 08:43:40;;;;;;;30.30;18.93;;;;;;;;;;4825976;29;20549;-71
2021/01/09 08:46:46;;;;;;;27.93;17.80;;;;;;;;;;4824738;29;20557;-71
2021/01/09 08:49:55;;;;;;;26.00;17.50;;;;;;;;;;4825355;29;20629;-71
2021/01/09 08:53:04;;;;;;;24.03;16.20;;;;;;;;;;4825807;29;21191;-71
2021/01/09 08:56:10;;;;;;;23.57;16.07;;;;;;;;;;4826028;29;20546;-71
2021/01/09 08:59:14;;;;;;;24.13;16.13;;;;;;;;;;4824385;29;20629;-71
2021/01/09 09:02:20;;;;;;;23.90;15.57;;;;;;;;;;4825305;29;20621;-72
2021/01/09 09:05:27;;;;;;;22.80;15.20;;;;;;;;;;4825655;29;20538;-71
2021/01/09 09:08:33;;;;;;;23.43;16.23;;;;;;;;;;4823230;29;20585;-72
2021/01/09 09:11:40;;;;;;;49.40;31.37;;;;;;;;;;4824299;29;20657;-72
2021/01/09 09:14:57;;;;;;;29.13;19.50;;;;;;;;;;4824768;29;20565;-72
2021/01/09 09:18:02;;;;;;;22.93;16.17;;;;;;;;;;4825107;29;20598;-72
2021/01/09 09:21:08;;;;;;;24.73;15.90;;;;;;;;;;4825191;29;20664;-72
2021/01/09 09:24:14;;;;;;;24.67;15.90;;;;;;;;;;4825391;29;20562;-72
2021/01/09 09:27:19;;;;;;;23.90;16.10;;;;;;;;;;4824911;29;21175;-72
2021/01/09 09:30:25;;;;;;;28.20;17.13;;;;;;;;;;4823858;29;20594;-73
2021/01/09 09:33:29;;;;;;;35.43;21.87;;;;;;;;;;4824044;29;20634;-74
2021/01/09 09:36:37;;;;;;;26.00;16.63;;;;;;;;;;4823943;29;20629;-73
2021/01/09 09:39:42;;;;;;;22.33;15.63;;;;;;;;;;4813712;29;20940;-73
2021/01/09 09:42:46;;;;;;;23.40;15.37;;;;;;;;;;4806596;29;21196;-73
2021/01/09 09:46:04;;;;;;;23.63;16.37;;;;;;;;;;4806409;29;20610;-74
2021/01/09 09:49:08;;;;;;;23.93;16.10;;;;;;;;;;4806400;29;20568;-74
2021/01/09 09:52:16;;;;;;;25.80;17.50;;;;;;;;;;4824101;29;20648;-73
2021/01/09 09:55:23;;;;;;;27.93;19.83;;;;;;;;;;4823987;29;20570;-74
2021/01/09 09:58:28;;;;;;;24.63;16.23;;;;;;;;;;4824070;29;20603;-73
2021/01/09 10:01:33;;;;;;;24.07;16.23;;;;;;;;;;4824267;29;20672;-74
2021/01/09 10:04:43;;;;;;;23.87;16.73;;;;;;;;;;4824292;29;20605;-74
2021/01/09 10:07:47;;;;;;;25.77;17.33;;;;;;;;;;4824569;29;20554;-74
2021/01/09 10:10:51;;;;;;;25.97;17.57;;;;;;;;;;4823607;29;20653;-74
2021/01/09 10:14:02;;;;;;;25.73;18.10;;;;;;;;;;4824513;29;20638;-74
2021/01/09 10:17:07;;;;;;;25.77;17.93;;;;;;;;;;4812924;29;20622;-74
2021/01/09 10:20:11;;;;;;;27.90;17.00;;;;;;;;;;4806408;29;20892;-74
2021/01/09 10:23:15;;;;;;;24.60;17.10;;;;;;;;;;4818249;29;20589;-74
2021/01/09 10:26:31;;;;;;;24.97;16.53;;;;;;;;;;4824050;29;20608;-74
2021/01/09 10:29:35;;;;;;;28.23;16.97;;;;;;;;;;4824462;29;20554;-74
2021/01/09 10:32:39;;;;;;;25.57;17.30;;;;;;;;;;4822913;29;20664;-74
2021/01/09 10:35:50;;;;;;;25.50;16.93;;;;;;;;;;4837441;24;20710;-74
2021/01/09 10:38:55;;;;;;;28.87;19.27;;;;;;;;;;4806097;29;20892;-74
2021/01/09 10:41:59;;;;;;;27.40;18.00;;;;;;;;;;4805770;29;20678;-74
2021/01/09 10:45:04;;;;;;;27.90;17.73;;;;;;;;;;4796339;29;20606;-73
2021/01/09 10:48:08;;;;;;;27.80;18.50;;;;;;;;;;4815521;29;20554;-74
2021/01/09 10:51:16;;;;;;;27.33;17.57;;;;;;;;;;4805512;29;20646;-74
2021/01/09 10:54:20;;;;;;;28.07;17.73;;;;;;;;;;4805459;29;20594;-73
2021/01/09 10:57:24;;;;;;;24.43;16.07;;;;;;;;;;4794853;29;20551;-74
2021/01/09 11:00:28;;;;;;;25.17;17.37;;;;;;;;;;4805792;29;20603;-74
2021/01/09 11:03:33;;;;;;;22.90;16.20;;;;;;;;;;4805625;29;20614;-74
2021/01/09 11:06:37;;;;;;;23.37;15.47;;;;;;;;;;4805458;29;20626;-74
2021/01/09 11:09:42;;;;;;;23.80;16.07;;;;;;;;;;4805718;29;20598;-74
2021/01/09 11:12:45;;;;;;;26.70;16.20;;;;;;;;;;4797894;29;21205;-74
2021/01/09 11:15:51;;;;;;;23.67;15.93;;;;;;;;;;4808321;29;21110;-74
2021/01/09 11:18:55;;;;;;;33.30;19.40;;;;;;;;;;4808697;29;20555;-74
2021/01/09 11:22:02;;;;;;;22.37;13.87;;;;;;;;;;4807927;29;20860;-74
2021/01/09 11:25:07;;;;;;;19.80;13.53;;;;;;;;;;4808034;29;20597;-74
2021/01/09 11:28:11;;;;;;;19.43;13.27;;;;;;;;;;4808098;29;21106;-75
2021/01/09 11:31:16;;;;;;;22.13;13.87;;;;;;;;;;4798161;29;20970;-75
2021/01/09 11:34:20;;;;;;;21.43;14.07;;;;;;;;;;4808580;29;20601;-75
2021/01/09 11:37:24;;;;;;;23.80;15.27;;;;;;;;;;4807387;29;20598;-75
2021/01/09 11:40:28;;;;;;;24.33;16.23;;;;;;;;;;4808359;29;20598;-75
2021/01/09 11:43:39;;;;;;;25.50;15.83;;;;;;;;;;4808331;29;20947;-74
2021/01/09 11:46:44;;;;;;;23.27;15.13;;;;;;;;;;4797425;29;20598;-74
2021/01/09 11:49:48;;;;;;;23.73;15.53;;;;;;;;;;4808523;29;20603;-74
2021/01/09 11:52:52;;;;;;;24.83;14.37;;;;;;;;;;4808689;29;20594;-73
2021/01/09 11:55:56;;;;;;;25.27;16.40;;;;;;;;;;4790281;30;20551;-74
2021/01/09 11:59:01;;;;;;;23.63;15.63;;;;;;;;;;4806979;29;20606;-75
2021/01/09 12:02:07;;;;;;;21.87;14.93;;;;;;;;;;4806453;29;20666;-75
2021/01/09 12:05:11;;;;;;;23.73;15.53;;;;;;;;;;4807011;29;20963;-74
2021/01/09 12:08:15;;;;;;;25.13;16.67;;;;;;;;;;4799693;29;20606;-75
2021/01/09 12:11:20;;;;;;;23.83;15.70;;;;;;;;;;4790339;30;20714;-75
2021/01/09 12:14:25;;;;;;;23.87;16.13;;;;;;;;;;4816244;29;20605;-74
2021/01/09 12:17:29;;;;;;;23.40;16.13;;;;;;;;;;4817433;29;20602;-75
2021/01/09 12:20:36;;;;;;;26.07;15.30;;;;;;;;;;4807056;29;20634;-73
2021/01/09 12:23:40;;;;;;;23.80;16.20;;;;;;;;;;4806908;29;20622;-73
2021/01/09 12:26:44;;;;;;;24.70;16.37;;;;;;;;;;4806924;29;20629;-74
2021/01/09 12:29:48;;;;;;;24.70;16.40;;;;;;;;;;4808197;29;21096;-74
2021/01/09 12:32:52;;;;;;;25.50;15.73;;;;;;;;;;4806995;29;20597;-74
2021/01/09 12:35:57;;;;;;;27.73;16.73;;;;;;;;;;4788863;29;20626;-75
2021/01/09 12:39:01;;;;;;;24.50;16.17;;;;;;;;;;4805764;29;20626;-75
2021/01/09 12:42:09;;;;;;;24.37;16.43;;;;;;;;;;4806593;29;20665;-74
2021/01/09 12:45:14;;;;;;;24.20;16.00;;;;;;;;;;4807021;29;20975;-74
2021/01/09 12:48:18;;;;;;;26.43;16.50;;;;;;;;;;4789637;30;20547;-75
2021/01/09 12:51:22;;;;;;;23.43;15.47;;;;;;;;;;4794329;29;21044;-74
2021/01/09 12:54:27;;;;;;;23.37;15.30;;;;;;;;;;4807271;29;20598;-75
2021/01/09 12:57:30;;;;;;;26.27;16.50;;;;;;;;;;4806591;29;20598;-75
2021/01/09 13:00:35;;;;;;;22.70;15.00;;;;;;;;;;4816451;29;20645;-73
2021/01/09 13:03:39;;;;;;;21.43;13.60;;;;;;;;;;4792352;29;20987;-72
2021/01/09 13:06:51;;;;;;;21.37;14.00;;;;;;;;;;4795051;29;20602;-72
2021/01/09 13:09:55;;;;;;;21.20;13.23;;;;;;;;;;4806836;29;20630;-77
2021/01/09 13:13:00;;;;;;;18.80;11.27;;;;;;;;;;4805195;29;20598;-72
2021/01/09 13:16:05;;;;;;;23.47;14.73;;;;;;;;;;4797109;29;20948;-71
2021/01/09 13:19:09;;;;;;;24.13;15.10;;;;;;;;;;4807141;29;20555;-72
2021/01/09 13:22:13;;;;;;;23.10;14.50;;;;;;;;;;4806564;29;21316;-71
2021/01/09 13:25:17;;;;;;;19.57;13.17;;;;;;;;;;4805969;29;20605;-71
2021/01/09 13:28:22;;;;;;;19.33;11.87;;;;;;;;;;4806227;29;20554;-71
2021/01/09 13:31:33;;;;;;;18.27;11.63;;;;;;;;;;4797541;29;20661;-71
2021/01/09 13:34:37;;;;;;;39.27;20.43;;;;;;;;;;4806742;29;20638;-71
2021/01/09 13:37:42;;;;;;;25.73;15.17;;;;;;;;;;4807017;29;20563;-71
2021/01/09 13:40:46;;;;;;;18.40;12.13;;;;;;;;;;4806718;29;20637;-71
2021/01/09 13:43:50;;;;;;;16.50;10.03;;;;;;;;;;4789511;29;20587;-71
2021/01/09 13:46:54;;;;;;;15.57;9.73;;;;;;;;;;4806420;29;20563;-72
2021/01/09 13:49:58;;;;;;;12.87;8.63;;;;;;;;;;4805330;29;20602;-72
2021/01/09 13:53:03;;;;;;;15.03;9.67;;;;;;;;;;4788912;30;20543;-74
2021/01/09 13:56:07;;;;;;;14.40;9.80;;;;;;;;;;4798199;29;20559;-74
2021/01/09 13:59:17;;;;;;;13.90;8.90;;;;;;;;;;4800169;29;21115;-74
2021/01/09 14:02:21;;;;;;;15.17;9.57;;;;;;;;;;4794727;29;20674;-74
2021/01/09 14:05:26;;;;;;;11.80;7.83;;;;;;;;;;4805569;29;20654;-74
2021/01/09 14:08:30;;;;;;;14.40;8.80;;;;;;;;;;4805401;29;20610;-74
2021/01/09 14:11:34;;;;;;;14.17;8.63;;;;;;;;;;4805487;29;21248;-73
2021/01/09 14:14:39;;;;;;;11.57;7.60;;;;;;;;;;4805643;29;20586;-74
2021/01/09 14:17:43;;;;;;;20.37;11.70;;;;;;;;;;4804923;29;20602;-73
2021/01/09 14:20:47;;;;;;;21.03;11.70;;;;;;;;;;4804925;29;20672;-73
2021/01/09 14:23:52;;;;;;;16.97;9.80;;;;;;;;;;4806251;29;20619;-74
2021/01/09 14:26:57;;;;;;;17.67;11.10;;;;;;;;;;4795004;29;20602;-73
2021/01/09 14:30:02;;;;;;;21.67;13.27;;;;;;;;;;4815950;29;20555;-73
2021/01/09 14:33:06;;;;;;;18.50;11.80;;;;;;;;;;4799324;29;20952;-72
2021/01/09 14:36:18;;;;;;;17.90;11.43;;;;;;;;;;4805731;29;21231;-72
2021/01/09 14:38:55;;;;;;;16.57;10.80;;;;;;;;;;5111641;27;20770;-73
2021/01/09 14:41:59;;;;;;;18.10;10.73;;;;;;;;;;5111088;28;21200;-73
2021/01/09 14:45:04;;;;;;;15.47;10.23;;;;;;;;;;5106457;28;20927;-72
2021/01/09 14:48:10;;;;;;;15.27;9.97;;;;;;;;;;5099122;28;20601;-71
2021/01/09 14:51:19;;;;;;;14.97;9.90;;;;;;;;;;5109539;28;20640;-72
2021/01/09 14:54:24;;;;;;;15.73;10.07;;;;;;;;;;5092471;28;20620;-72
2021/01/09 14:57:28;;;;;;;15.73;9.90;;;;;;;;;;5098709;28;20670;-74
2021/01/09 15:00:32;;;;;;;15.77;9.53;;;;;;;;;;5107994;28;21161;-72
2021/01/09 15:03:36;;;;;;;17.27;10.70;;;;;;;;;;5110507;28;20584;-72
2021/01/09 15:06:40;;;;;;;15.50;9.37;;;;;;;;;;5109842;28;20930;-72
2021/01/09 15:09:48;;;;;;;17.00;10.07;;;;;;;;;;5109419;28;20596;-73
2021/01/09 15:12:52;;;;;;;31.37;17.87;;;;;;;;;;5109776;28;20533;-72
2021/01/09 15:15:57;;;;;;;68.00;35.23;;;;;;;;;;5108584;28;20581;-72
2021/01/09 15:19:20;;;;;;;63.33;33.97;;;;;;;;;;5097846;28;20938;-73
2021/01/09 15:22:24;;;;;;;97.10;45.97;;;;;;;;;;5108610;28;20652;-71
2021/01/09 15:25:28;;;;;;;101.00;47.90;;;;;;;;;;5097577;28;20584;-72
2021/01/09 15:28:33;;;;;;;81.07;39.43;;;;;;;;;;5065784;28;20549;-73
2021/01/09 15:31:38;;;;;;;60.70;29.50;;;;;;;;;;5089796;28;20644;-71
2021/01/09 15:34:42;;;;;;;41.40;22.43;;;;;;;;;;5088865;28;20554;-72
2021/01/09 15:37:46;;;;;;;39.10;21.60;;;;;;;;;;5088757;28;20640;-73
2021/01/09 15:40:50;;;;;;;34.43;18.97;;;;;;;;;;5087165;28;20639;-71
2021/01/09 15:43:55;;;;;;;29.33;16.03;;;;;;;;;;5109943;28;20532;-72
2021/01/09 15:46:59;;;;;;;24.73;14.97;;;;;;;;;;5090137;28;20601;-73
2021/01/09 15:50:04;;;;;;;22.33;13.13;;;;;;;;;;5077183;28;20546;-74
2021/01/09 15:53:08;;;;;;;18.30;11.00;;;;;;;;;;5075097;28;20538;-72
2021/01/09 15:56:14;;;;;;;19.77;10.60;;;;;;;;;;5074833;28;20944;-71
2021/01/09 15:59:18;;;;;;;17.30;9.70;;;;;;;;;;5075149;28;20899;-72
2021/01/09 16:02:23;;;;;;;15.90;10.00;;;;;;;;;;5094242;28;20648;-71
2021/01/09 16:05:27;;;;;;;14.93;9.70;;;;;;;;;;5086962;28;20596;-72
2021/01/09 16:08:31;;;;;;;12.57;8.47;;;;;;;;;;5075840;28;20542;-72
2021/01/09 16:11:36;;;;;;;12.87;8.33;;;;;;;;;;5086906;28;20648;-72
2021/01/09 16:14:40;;;;;;;13.57;7.90;;;;;;;;;;5095703;28;20537;-73
2021/01/09 16:17:44;;;;;;;10.73;7.20;;;;;;;;;;5094632;28;20601;-73
2021/01/09 16:20:48;;;;;;;11.53;7.50;;;;;;;;;;5074054;28;20653;-72
2021/01/09 16:23:53;;;;;;;13.67;7.87;;;;;;;;;;5088236;28;20585;-73
2021/01/09 16:26:59;;;;;;;12.13;8.13;;;;;;;;;;5074969;28;21179;-72
2021/01/09 16:30:04;;;;;;;14.83;8.20;;;;;;;;;;5084010;28;20578;-72
2021/01/09 16:33:15;;;;;;;11.57;7.37;;;;;;;;;;5073912;28;20929;-72
2021/01/09 16:36:19;;;;;;;11.90;7.17;;;;;;;;;;5076730;28;20594;-72
2021/01/09 16:39:23;;;;;;;15.27;8.23;;;;;;;;;;5094439;28;20581;-73
2021/01/09 16:42:28;;;;;;;11.67;7.33;;;;;;;;;;5093868;28;20987;-72
2021/01/09 16:45:33;;;;;;;11.63;7.53;;;;;;;;;;5084228;28;20590;-72
2021/01/09 16:48:38;;;;;;;14.87;8.37;;;;;;;;;;5062875;28;21056;-73
2021/01/09 16:51:42;;;;;;;13.93;7.63;;;;;;;;;;5082045;28;20652;-72
2021/01/09 16:54:46;;;;;;;13.50;7.77;;;;;;;;;;5082590;28;20537;-73
2021/01/09 16:57:59;;;;;;;11.30;7.80;;;;;;;;;;5067052;23;20683;-75
2021/01/09 17:01:04;;;;;;;11.90;7.80;;;;;;;;;;5022073;28;20647;-73
2021/01/09 17:04:08;;;;;;;11.33;7.07;;;;;;;;;;5034654;28;21081;-73
2021/01/09 17:07:12;;;;;;;13.37;8.30;;;;;;;;;;5014902;28;20552;-74
2021/01/09 17:10:16;;;;;;;12.53;7.63;;;;;;;;;;5014839;28;20537;-74
2021/01/09 17:13:21;;;;;;;11.77;7.10;;;;;;;;;;5037393;28;21149;-74
2021/01/09 17:16:25;;;;;;;12.10;7.20;;;;;;;;;;5033932;28;21137;-74
2021/01/09 17:19:29;;;;;;;12.80;8.00;;;;;;;;;;5034277;28;20611;-73
2021/01/09 17:22:36;;;;;;;12.23;7.70;;;;;;;;;;5034191;28;20623;-74
2021/01/09 17:25:45;;;;;;;11.70;7.43;;;;;;;;;;5033188;28;20588;-73
2021/01/09 17:28:50;;;;;;;13.10;8.00;;;;;;;;;;5024757;28;20924;-73
2021/01/09 17:31:55;;;;;;;13.67;7.80;;;;;;;;;;5013372;28;20627;-73
2021/01/09 17:34:59;;;;;;;15.23;8.03;;;;;;;;;;5014375;28;20549;-73
2021/01/09 17:38:04;;;;;;;12.30;7.50;;;;;;;;;;5018505;28;20620;-73
2021/01/09 17:41:11;;;;;;;16.30;7.67;;;;;;;;;;5033447;28;20663;-73
2021/01/09 17:44:15;;;;;;;17.30;11.00;;;;;;;;;;5031799;28;20579;-73
2021/01/09 17:47:20;;;;;;;17.43;10.27;;;;;;;;;;5033962;28;21101;-76
2021/01/09 17:50:25;;;;;;;13.30;8.03;;;;;;;;;;5046324;28;20552;-76
2021/01/09 17:53:29;;;;;;;14.80;8.53;;;;;;;;;;5045942;28;20536;-76
2021/01/09 17:56:34;;;;;;;14.80;8.53;;;;;;;;;;5014357;28;20607;-76
2021/01/09 17:59:38;;;;;;;12.83;7.00;;;;;;;;;;5026391;28;20581;-76